sensor_id;sensor_type;location;lat;lon;timestamp;P1;durP1;ratioP1;P2;durP2;ratioP2
1977;SDS011;989;53.016;8.346;2023-03-01T00:01:53;10.75;;;4.40;;
1977;SDS011;989;53.016;8.346;2023-03-01T00:04:19;11.60;;;4.15;;
1977;SDS011;989;53.016;8.346;2023-03-01T00:06:45;7.80;;;4.00;;
1977;SDS011;989;53.016;8.346;2023-03-01T00:09:12;15.27;;;5.15;;
1977;SDS011;989;53.016;8.346;2023-03-01T00:11:38;9.35;;;4.70;;
1977;SDS011;989;53.016;8.346;2023-03-01T00:14:04;8.10;;;3.90;;
1977;SDS011;989;53.016;8.346;2023-03-01T00:16:35;6.78;;;4.38;;
1977;SDS011;989;53.016;8.346;2023-03-01T00:19:03;10.93;;;5.70;;
1977;SDS011;989;53.016;8.346;2023-03-01T00:21:30;20.42;;;6.25;;
1977;SDS011;989;53.016;8.346;2023-03-01T00:23:56;13.38;;;5.93;;
1977;SDS011;989;53.016;8.346;2023-03-01T00:26:23;14.27;;;7.50;;
1977;SDS011;989;53.016;8.346;2023-03-01T00:28:49;21.10;;;8.90;;
1977;SDS011;989;53.016;8.346;2023-03-01T00:31:17;12.80;;;7.70;;
1977;SDS011;989;53.016;8.346;2023-03-01T00:33:44;15.90;;;8.45;;
1977;SDS011;989;53.016;8.346;2023-03-01T00:36:11;17.10;;;7.35;;
1977;SDS011;989;53.016;8.346;2023-03-01T00:38:39;13.80;;;8.40;;
1977;SDS011;989;53.016;8.346;2023-03-01T00:41:06;22.52;;;8.45;;
1977;SDS011;989;53.016;8.346;2023-03-01T00:43:32;12.45;;;6.38;;
1977;SDS011;989;53.016;8.346;2023-03-01T00:46:21;17.92;;;6.28;;
1977;SDS011;989;53.016;8.346;2023-03-01T00:48:47;11.55;;;5.93;;
1977;SDS011;989;53.016;8.346;2023-03-01T00:51:14;17.65;;;6.93;;
1977;SDS011;989;53.016;8.346;2023-03-01T00:53:41;20.38;;;8.95;;
1977;SDS011;989;53.016;8.346;2023-03-01T00:56:08;21.50;;;9.00;;
1977;SDS011;989;53.016;8.346;2023-03-01T00:58:34;14.80;;;7.93;;
1977;SDS011;989;53.016;8.346;2023-03-01T01:01:01;20.27;;;7.30;;
1977;SDS011;989;53.016;8.346;2023-03-01T01:03:32;13.05;;;5.93;;
1977;SDS011;989;53.016;8.346;2023-03-01T01:05:58;14.70;;;6.53;;
1977;SDS011;989;53.016;8.346;2023-03-01T01:08:29;13.35;;;5.80;;
1977;SDS011;989;53.016;8.346;2023-03-01T01:10:55;26.60;;;7.00;;
1977;SDS011;989;53.016;8.346;2023-03-01T01:13:21;15.32;;;7.70;;
1977;SDS011;989;53.016;8.346;2023-03-01T01:15:47;14.57;;;7.57;;
1977;SDS011;989;53.016;8.346;2023-03-01T01:18:13;15.93;;;8.05;;
1977;SDS011;989;53.016;8.346;2023-03-01T01:20:39;19.13;;;7.40;;
1977;SDS011;989;53.016;8.346;2023-03-01T01:23:05;14.40;;;7.13;;
1977;SDS011;989;53.016;8.346;2023-03-01T01:25:34;12.77;;;7.35;;
1977;SDS011;989;53.016;8.346;2023-03-01T01:28:00;17.52;;;7.43;;
1977;SDS011;989;53.016;8.346;2023-03-01T01:30:26;20.05;;;7.90;;
1977;SDS011;989;53.016;8.346;2023-03-01T01:32:52;16.58;;;6.70;;
1977;SDS011;989;53.016;8.346;2023-03-01T01:35:18;14.40;;;7.35;;
1977;SDS011;989;53.016;8.346;2023-03-01T01:37:44;16.35;;;7.10;;
1977;SDS011;989;53.016;8.346;2023-03-01T01:40:10;13.57;;;7.10;;
1977;SDS011;989;53.016;8.346;2023-03-01T01:42:36;19.13;;;7.32;;
1977;SDS011;989;53.016;8.346;2023-03-01T01:47:48;15.30;;;6.28;;
1977;SDS011;989;53.016;8.346;2023-03-01T01:50:15;14.07;;;6.38;;
1977;SDS011;989;53.016;8.346;2023-03-01T01:52:43;18.40;;;7.15;;
1977;SDS011;989;53.016;8.346;2023-03-01T01:55:10;17.33;;;6.55;;
1977;SDS011;989;53.016;8.346;2023-03-01T01:57:38;14.93;;;7.18;;
1977;SDS011;989;53.016;8.346;2023-03-01T02:00:16;23.80;;;6.28;;
1977;SDS011;989;53.016;8.346;2023-03-01T02:02:43;13.85;;;6.95;;
1977;SDS011;989;53.016;8.346;2023-03-01T02:05:20;13.63;;;6.63;;
1977;SDS011;989;53.016;8.346;2023-03-01T02:07:48;12.25;;;6.13;;
1977;SDS011;989;53.016;8.346;2023-03-01T02:10:14;14.50;;;5.75;;
1977;SDS011;989;53.016;8.346;2023-03-01T02:12:40;23.05;;;6.65;;
1977;SDS011;989;53.016;8.346;2023-03-01T02:15:07;16.52;;;6.68;;
1977;SDS011;989;53.016;8.346;2023-03-01T02:17:33;16.63;;;8.13;;
1977;SDS011;989;53.016;8.346;2023-03-01T02:22:35;15.13;;;7.53;;
1977;SDS011;989;53.016;8.346;2023-03-01T02:30:09;14.35;;;6.25;;
1977;SDS011;989;53.016;8.346;2023-03-01T02:32:37;8.38;;;4.75;;
1977;SDS011;989;53.016;8.346;2023-03-01T02:35:06;11.52;;;5.13;;
1977;SDS011;989;53.016;8.346;2023-03-01T02:37:33;14.27;;;6.43;;
1977;SDS011;989;53.016;8.346;2023-03-01T02:40:02;11.63;;;7.22;;
1977;SDS011;989;53.016;8.346;2023-03-01T02:42:30;9.63;;;5.63;;
1977;SDS011;989;53.016;8.346;2023-03-01T02:44:58;13.88;;;5.80;;
1977;SDS011;989;53.016;8.346;2023-03-01T02:47:24;12.73;;;5.82;;
1977;SDS011;989;53.016;8.346;2023-03-01T02:49:50;10.45;;;6.07;;
1977;SDS011;989;53.016;8.346;2023-03-01T02:57:23;11.80;;;4.78;;
1977;SDS011;989;53.016;8.346;2023-03-01T02:59:52;10.77;;;6.85;;
1977;SDS011;989;53.016;8.346;2023-03-01T03:02:20;11.52;;;5.53;;
1977;SDS011;989;53.016;8.346;2023-03-01T03:05:00;13.77;;;5.68;;
1977;SDS011;989;53.016;8.346;2023-03-01T03:07:26;9.20;;;4.35;;
1977;SDS011;989;53.016;8.346;2023-03-01T03:09:52;6.97;;;3.42;;
1977;SDS011;989;53.016;8.346;2023-03-01T03:12:18;7.30;;;5.05;;
1977;SDS011;989;53.016;8.346;2023-03-01T03:14:44;14.68;;;5.95;;
1977;SDS011;989;53.016;8.346;2023-03-01T03:17:10;11.88;;;5.15;;
1977;SDS011;989;53.016;8.346;2023-03-01T03:19:36;20.60;;;5.82;;
1977;SDS011;989;53.016;8.346;2023-03-01T03:22:02;13.50;;;5.75;;
1977;SDS011;989;53.016;8.346;2023-03-01T03:24:28;11.25;;;6.30;;
1977;SDS011;989;53.016;8.346;2023-03-01T03:27:03;12.20;;;6.20;;
1977;SDS011;989;53.016;8.346;2023-03-01T03:29:29;9.68;;;5.30;;
1977;SDS011;989;53.016;8.346;2023-03-01T03:31:55;8.15;;;4.80;;
1977;SDS011;989;53.016;8.346;2023-03-01T03:34:21;13.48;;;5.25;;
1977;SDS011;989;53.016;8.346;2023-03-01T03:36:47;8.02;;;5.63;;
1977;SDS011;989;53.016;8.346;2023-03-01T03:39:13;15.23;;;5.70;;
1977;SDS011;989;53.016;8.346;2023-03-01T03:41:39;7.22;;;5.03;;
1977;SDS011;989;53.016;8.346;2023-03-01T03:44:05;7.47;;;4.28;;
1977;SDS011;989;53.016;8.346;2023-03-01T03:46:31;9.93;;;4.95;;
1977;SDS011;989;53.016;8.346;2023-03-01T03:48:57;9.52;;;3.30;;
1977;SDS011;989;53.016;8.346;2023-03-01T03:51:23;8.73;;;4.90;;
1977;SDS011;989;53.016;8.346;2023-03-01T03:53:49;9.70;;;5.10;;
1977;SDS011;989;53.016;8.346;2023-03-01T03:56:17;8.50;;;4.95;;
1977;SDS011;989;53.016;8.346;2023-03-01T03:58:43;8.73;;;5.45;;
1977;SDS011;989;53.016;8.346;2023-03-01T04:01:09;13.30;;;4.63;;
1977;SDS011;989;53.016;8.346;2023-03-01T04:03:35;12.48;;;5.90;;
1977;SDS011;989;53.016;8.346;2023-03-01T04:06:01;8.65;;;4.30;;
1977;SDS011;989;53.016;8.346;2023-03-01T04:08:27;10.80;;;5.43;;
1977;SDS011;989;53.016;8.346;2023-03-01T04:10:58;11.27;;;5.18;;
1977;SDS011;989;53.016;8.346;2023-03-01T04:13:25;8.27;;;4.05;;
1977;SDS011;989;53.016;8.346;2023-03-01T04:15:52;11.80;;;3.75;;
1977;SDS011;989;53.016;8.346;2023-03-01T04:18:19;6.00;;;3.40;;
1977;SDS011;989;53.016;8.346;2023-03-01T04:20:45;7.22;;;4.80;;
1977;SDS011;989;53.016;8.346;2023-03-01T04:23:13;7.53;;;4.50;;
1977;SDS011;989;53.016;8.346;2023-03-01T04:28:07;7.32;;;4.50;;
1977;SDS011;989;53.016;8.346;2023-03-01T04:30:34;9.43;;;4.03;;
1977;SDS011;989;53.016;8.346;2023-03-01T04:33:07;7.95;;;4.90;;
1977;SDS011;989;53.016;8.346;2023-03-01T04:35:34;7.50;;;4.55;;
1977;SDS011;989;53.016;8.346;2023-03-01T04:38:00;10.25;;;6.07;;
1977;SDS011;989;53.016;8.346;2023-03-01T04:40:26;11.63;;;4.63;;
1977;SDS011;989;53.016;8.346;2023-03-01T04:42:52;19.73;;;6.45;;
1977;SDS011;989;53.016;8.346;2023-03-01T04:45:19;5.80;;;3.63;;
1977;SDS011;989;53.016;8.346;2023-03-01T04:47:45;8.77;;;4.53;;
1977;SDS011;989;53.016;8.346;2023-03-01T04:50:14;10.30;;;4.18;;
1977;SDS011;989;53.016;8.346;2023-03-01T04:52:40;6.60;;;4.50;;
1977;SDS011;989;53.016;8.346;2023-03-01T04:55:06;10.82;;;5.40;;
1977;SDS011;989;53.016;8.346;2023-03-01T04:57:32;8.05;;;3.95;;
1977;SDS011;989;53.016;8.346;2023-03-01T04:59:58;8.27;;;4.00;;
1977;SDS011;989;53.016;8.346;2023-03-01T05:02:24;7.25;;;3.65;;
1977;SDS011;989;53.016;8.346;2023-03-01T05:04:50;10.13;;;6.18;;
1977;SDS011;989;53.016;8.346;2023-03-01T05:07:17;7.32;;;3.45;;
1977;SDS011;989;53.016;8.346;2023-03-01T05:09:47;7.80;;;4.45;;
1977;SDS011;989;53.016;8.346;2023-03-01T05:12:13;7.55;;;5.68;;
1977;SDS011;989;53.016;8.346;2023-03-01T05:14:40;10.85;;;4.15;;
1977;SDS011;989;53.016;8.346;2023-03-01T05:17:06;12.77;;;5.50;;
1977;SDS011;989;53.016;8.346;2023-03-01T05:19:32;8.75;;;4.68;;
1977;SDS011;989;53.016;8.346;2023-03-01T05:21:58;10.15;;;4.20;;
1977;SDS011;989;53.016;8.346;2023-03-01T05:24:27;9.63;;;5.22;;
1977;SDS011;989;53.016;8.346;2023-03-01T05:26:53;9.40;;;4.10;;
1977;SDS011;989;53.016;8.346;2023-03-01T05:29:19;7.53;;;4.45;;
1977;SDS011;989;53.016;8.346;2023-03-01T05:34:22;11.95;;;4.22;;
1977;SDS011;989;53.016;8.346;2023-03-01T05:36:48;9.45;;;5.30;;
1977;SDS011;989;53.016;8.346;2023-03-01T05:39:18;15.52;;;4.90;;
1977;SDS011;989;53.016;8.346;2023-03-01T05:41:44;8.93;;;4.15;;
1977;SDS011;989;53.016;8.346;2023-03-01T05:44:10;7.20;;;4.70;;
1977;SDS011;989;53.016;8.346;2023-03-01T05:46:37;8.55;;;4.18;;
1977;SDS011;989;53.016;8.346;2023-03-01T05:49:03;23.40;;;5.63;;
1977;SDS011;989;53.016;8.346;2023-03-01T05:51:29;15.13;;;6.55;;
1977;SDS011;989;53.016;8.346;2023-03-01T05:53:55;9.38;;;5.20;;
1977;SDS011;989;53.016;8.346;2023-03-01T05:56:21;13.50;;;6.07;;
1977;SDS011;989;53.016;8.346;2023-03-01T05:58:48;7.38;;;3.63;;
1977;SDS011;989;53.016;8.346;2023-03-01T06:01:14;6.82;;;4.32;;
1977;SDS011;989;53.016;8.346;2023-03-01T06:03:40;11.77;;;3.67;;
1977;SDS011;989;53.016;8.346;2023-03-01T06:06:06;7.25;;;3.30;;
1977;SDS011;989;53.016;8.346;2023-03-01T06:08:32;4.38;;;3.38;;
1977;SDS011;989;53.016;8.346;2023-03-01T06:10:58;16.52;;;4.82;;
1977;SDS011;989;53.016;8.346;2023-03-01T06:13:24;9.57;;;5.00;;
1977;SDS011;989;53.016;8.346;2023-03-01T06:15:51;9.88;;;4.65;;
1977;SDS011;989;53.016;8.346;2023-03-01T06:18:17;7.15;;;4.32;;
1977;SDS011;989;53.016;8.346;2023-03-01T06:20:43;6.25;;;4.10;;
1977;SDS011;989;53.016;8.346;2023-03-01T06:23:09;10.85;;;4.22;;
1977;SDS011;989;53.016;8.346;2023-03-01T06:25:35;12.27;;;5.28;;
1977;SDS011;989;53.016;8.346;2023-03-01T06:28:01;8.98;;;5.32;;
1977;SDS011;989;53.016;8.346;2023-03-01T06:30:27;12.95;;;6.10;;
1977;SDS011;989;53.016;8.346;2023-03-01T06:32:53;11.90;;;5.85;;
1977;SDS011;989;53.016;8.346;2023-03-01T06:35:25;19.80;;;6.50;;
1977;SDS011;989;53.016;8.346;2023-03-01T06:37:55;15.48;;;5.47;;
1977;SDS011;989;53.016;8.346;2023-03-01T06:40:22;11.48;;;7.03;;
1977;SDS011;989;53.016;8.346;2023-03-01T06:42:48;10.15;;;6.63;;
1977;SDS011;989;53.016;8.346;2023-03-01T06:45:15;17.05;;;7.32;;
1977;SDS011;989;53.016;8.346;2023-03-01T06:47:42;11.20;;;4.95;;
1977;SDS011;989;53.016;8.346;2023-03-01T06:50:08;12.90;;;5.90;;
1977;SDS011;989;53.016;8.346;2023-03-01T06:52:34;7.18;;;4.88;;
1977;SDS011;989;53.016;8.346;2023-03-01T06:55:01;11.00;;;5.00;;
1977;SDS011;989;53.016;8.346;2023-03-01T06:57:27;12.13;;;6.13;;
1977;SDS011;989;53.016;8.346;2023-03-01T06:59:53;10.70;;;6.00;;
1977;SDS011;989;53.016;8.346;2023-03-01T07:02:19;12.68;;;6.18;;
1977;SDS011;989;53.016;8.346;2023-03-01T07:04:45;16.65;;;6.53;;
1977;SDS011;989;53.016;8.346;2023-03-01T07:07:11;10.35;;;5.90;;
1977;SDS011;989;53.016;8.346;2023-03-01T07:09:37;13.40;;;6.95;;
1977;SDS011;989;53.016;8.346;2023-03-01T07:12:04;10.93;;;5.82;;
1977;SDS011;989;53.016;8.346;2023-03-01T07:14:30;12.48;;;5.95;;
1977;SDS011;989;53.016;8.346;2023-03-01T07:16:56;7.07;;;4.72;;
1977;SDS011;989;53.016;8.346;2023-03-01T07:19:22;14.75;;;5.45;;
1977;SDS011;989;53.016;8.346;2023-03-01T07:21:48;13.05;;;7.03;;
1977;SDS011;989;53.016;8.346;2023-03-01T07:24:14;27.25;;;7.13;;
1977;SDS011;989;53.016;8.346;2023-03-01T07:26:40;16.38;;;7.13;;
1977;SDS011;989;53.016;8.346;2023-03-01T07:29:07;13.48;;;6.95;;
1977;SDS011;989;53.016;8.346;2023-03-01T07:31:33;11.43;;;6.40;;
1977;SDS011;989;53.016;8.346;2023-03-01T07:33:59;9.43;;;5.93;;
1977;SDS011;989;53.016;8.346;2023-03-01T07:36:25;13.83;;;5.90;;
1977;SDS011;989;53.016;8.346;2023-03-01T07:38:51;13.35;;;7.18;;
1977;SDS011;989;53.016;8.346;2023-03-01T07:41:17;11.52;;;5.85;;
1977;SDS011;989;53.016;8.346;2023-03-01T07:43:43;13.25;;;8.25;;
1977;SDS011;989;53.016;8.346;2023-03-01T07:46:09;17.17;;;7.38;;
1977;SDS011;989;53.016;8.346;2023-03-01T07:48:35;16.85;;;8.30;;
1977;SDS011;989;53.016;8.346;2023-03-01T07:51:02;12.32;;;7.65;;
1977;SDS011;989;53.016;8.346;2023-03-01T07:53:32;13.82;;;8.32;;
1977;SDS011;989;53.016;8.346;2023-03-01T07:56:12;16.75;;;8.75;;
1977;SDS011;989;53.016;8.346;2023-03-01T07:58:39;16.33;;;8.35;;
1977;SDS011;989;53.016;8.346;2023-03-01T08:01:07;19.40;;;8.45;;
1977;SDS011;989;53.016;8.346;2023-03-01T08:03:34;14.52;;;7.80;;
1977;SDS011;989;53.016;8.346;2023-03-01T08:06:00;22.23;;;9.50;;
1977;SDS011;989;53.016;8.346;2023-03-01T08:08:26;30.08;;;8.30;;
1977;SDS011;989;53.016;8.346;2023-03-01T08:10:55;14.07;;;8.10;;
1977;SDS011;989;53.016;8.346;2023-03-01T08:13:21;21.42;;;9.13;;
1977;SDS011;989;53.016;8.346;2023-03-01T08:15:48;20.50;;;9.07;;
1977;SDS011;989;53.016;8.346;2023-03-01T08:18:14;22.23;;;10.40;;
1977;SDS011;989;53.016;8.346;2023-03-01T08:20:40;20.20;;;9.80;;
1977;SDS011;989;53.016;8.346;2023-03-01T08:23:06;16.55;;;8.88;;
1977;SDS011;989;53.016;8.346;2023-03-01T08:25:32;30.88;;;10.30;;
1977;SDS011;989;53.016;8.346;2023-03-01T08:27:58;17.42;;;8.73;;
1977;SDS011;989;53.016;8.346;2023-03-01T08:30:24;23.40;;;11.00;;
1977;SDS011;989;53.016;8.346;2023-03-01T08:32:50;14.60;;;8.07;;
1977;SDS011;989;53.016;8.346;2023-03-01T08:35:16;19.02;;;8.85;;
1977;SDS011;989;53.016;8.346;2023-03-01T08:37:43;21.63;;;9.65;;
1977;SDS011;989;53.016;8.346;2023-03-01T08:40:09;17.50;;;8.80;;
1977;SDS011;989;53.016;8.346;2023-03-01T08:42:38;18.52;;;8.27;;
1977;SDS011;989;53.016;8.346;2023-03-01T08:45:04;14.27;;;8.60;;
1977;SDS011;989;53.016;8.346;2023-03-01T08:47:30;16.63;;;8.07;;
1977;SDS011;989;53.016;8.346;2023-03-01T08:49:58;19.10;;;6.88;;
1977;SDS011;989;53.016;8.346;2023-03-01T08:52:24;11.90;;;7.07;;
1977;SDS011;989;53.016;8.346;2023-03-01T08:54:51;21.60;;;7.47;;
1977;SDS011;989;53.016;8.346;2023-03-01T08:57:17;17.58;;;9.10;;
1977;SDS011;989;53.016;8.346;2023-03-01T08:59:43;20.15;;;7.50;;
1977;SDS011;989;53.016;8.346;2023-03-01T09:02:13;15.57;;;7.72;;
1977;SDS011;989;53.016;8.346;2023-03-01T09:04:40;10.82;;;7.07;;
1977;SDS011;989;53.016;8.346;2023-03-01T09:07:06;12.73;;;6.97;;
1977;SDS011;989;53.016;8.346;2023-03-01T09:09:33;17.17;;;8.60;;
1977;SDS011;989;53.016;8.346;2023-03-01T09:11:59;15.57;;;8.07;;
1977;SDS011;989;53.016;8.346;2023-03-01T09:14:25;46.22;;;8.57;;
1977;SDS011;989;53.016;8.346;2023-03-01T09:16:51;11.80;;;6.10;;
1977;SDS011;989;53.016;8.346;2023-03-01T09:19:17;13.13;;;7.37;;
1977;SDS011;989;53.016;8.346;2023-03-01T09:21:43;20.60;;;7.10;;
1977;SDS011;989;53.016;8.346;2023-03-01T09:24:22;11.98;;;7.57;;
1977;SDS011;989;53.016;8.346;2023-03-01T09:26:48;18.35;;;7.00;;
1977;SDS011;989;53.016;8.346;2023-03-01T09:29:15;12.27;;;6.53;;
1977;SDS011;989;53.016;8.346;2023-03-01T09:31:41;10.93;;;6.07;;
1977;SDS011;989;53.016;8.346;2023-03-01T09:34:07;12.52;;;6.35;;
1977;SDS011;989;53.016;8.346;2023-03-01T09:36:34;12.63;;;6.78;;
1977;SDS011;989;53.016;8.346;2023-03-01T09:39:00;14.25;;;7.85;;
1977;SDS011;989;53.016;8.346;2023-03-01T09:41:38;15.50;;;6.90;;
1977;SDS011;989;53.016;8.346;2023-03-01T09:46:52;10.07;;;6.13;;
1977;SDS011;989;53.016;8.346;2023-03-01T09:49:20;8.13;;;5.05;;
1977;SDS011;989;53.016;8.346;2023-03-01T09:51:54;9.18;;;4.90;;
1977;SDS011;989;53.016;8.346;2023-03-01T09:54:20;8.05;;;4.30;;
1977;SDS011;989;53.016;8.346;2023-03-01T09:56:50;8.55;;;4.80;;
1977;SDS011;989;53.016;8.346;2023-03-01T10:02:01;36.05;;;5.18;;
1977;SDS011;989;53.016;8.346;2023-03-01T10:04:35;9.70;;;4.60;;
1977;SDS011;989;53.016;8.346;2023-03-01T10:09:40;7.85;;;5.10;;
1977;SDS011;989;53.016;8.346;2023-03-01T10:12:08;22.83;;;6.78;;
1977;SDS011;989;53.016;8.346;2023-03-01T10:17:02;8.30;;;4.33;;
1977;SDS011;989;53.016;8.346;2023-03-01T10:22:32;12.13;;;5.82;;
1977;SDS011;989;53.016;8.346;2023-03-01T10:24:53;9.52;;;5.55;;
1977;SDS011;989;53.016;8.346;2023-03-01T10:27:21;8.27;;;5.07;;
1977;SDS011;989;53.016;8.346;2023-03-01T10:30:05;8.25;;;3.72;;
1977;SDS011;989;53.016;8.346;2023-03-01T10:32:32;7.85;;;4.35;;
1977;SDS011;989;53.016;8.346;2023-03-01T10:34:58;12.07;;;4.65;;
1977;SDS011;989;53.016;8.346;2023-03-01T10:37:24;5.93;;;4.30;;
1977;SDS011;989;53.016;8.346;2023-03-01T10:40:08;6.13;;;3.88;;
1977;SDS011;989;53.016;8.346;2023-03-01T10:42:38;10.50;;;5.28;;
1977;SDS011;989;53.016;8.346;2023-03-01T10:45:15;6.13;;;3.47;;
1977;SDS011;989;53.016;8.346;2023-03-01T10:47:41;5.35;;;3.63;;
1977;SDS011;989;53.016;8.346;2023-03-01T10:50:17;8.73;;;4.70;;
1977;SDS011;989;53.016;8.346;2023-03-01T10:52:44;10.48;;;5.25;;
1977;SDS011;989;53.016;8.346;2023-03-01T10:55:23;9.18;;;4.90;;
1977;SDS011;989;53.016;8.346;2023-03-01T10:57:50;10.43;;;4.82;;
1977;SDS011;989;53.016;8.346;2023-03-01T11:00:31;14.88;;;6.72;;
1977;SDS011;989;53.016;8.346;2023-03-01T11:05:24;14.33;;;7.43;;
1977;SDS011;989;53.016;8.346;2023-03-01T11:07:54;9.45;;;5.72;;
1977;SDS011;989;53.016;8.346;2023-03-01T11:10:32;11.57;;;5.57;;
1977;SDS011;989;53.016;8.346;2023-03-01T11:13:06;11.85;;;5.88;;
1977;SDS011;989;53.016;8.346;2023-03-01T11:15:32;7.50;;;4.68;;
1977;SDS011;989;53.016;8.346;2023-03-01T11:17:58;11.02;;;6.10;;
1977;SDS011;989;53.016;8.346;2023-03-01T11:20:45;10.73;;;6.68;;
1977;SDS011;989;53.016;8.346;2023-03-01T11:23:12;12.55;;;6.30;;
1977;SDS011;989;53.016;8.346;2023-03-01T11:25:43;9.75;;;5.90;;
1977;SDS011;989;53.016;8.346;2023-03-01T11:28:13;7.40;;;4.75;;
1977;SDS011;989;53.016;8.346;2023-03-01T11:38:43;9.45;;;6.72;;
1977;SDS011;989;53.016;8.346;2023-03-01T11:44:05;19.35;;;7.43;;
1977;SDS011;989;53.016;8.346;2023-03-01T11:54:47;16.70;;;7.13;;
1977;SDS011;989;53.016;8.346;2023-03-01T11:57:20;12.60;;;7.53;;
1977;SDS011;989;53.016;8.346;2023-03-01T11:59:59;11.18;;;7.82;;
1977;SDS011;989;53.016;8.346;2023-03-01T12:07:46;15.03;;;9.17;;
1977;SDS011;989;53.016;8.346;2023-03-01T12:20:26;13.13;;;8.40;;
1977;SDS011;989;53.016;8.346;2023-03-01T12:28:04;14.40;;;8.20;;
1977;SDS011;989;53.016;8.346;2023-03-01T12:30:51;19.70;;;9.20;;
1977;SDS011;989;53.016;8.346;2023-03-01T12:35:48;16.23;;;8.17;;
1977;SDS011;989;53.016;8.346;2023-03-01T12:38:23;13.63;;;10.47;;
1977;SDS011;989;53.016;8.346;2023-03-01T12:51:32;21.17;;;9.27;;
1977;SDS011;989;53.016;8.346;2023-03-01T12:54:01;14.37;;;7.77;;
1977;SDS011;989;53.016;8.346;2023-03-01T12:56:31;12.80;;;8.20;;
1977;SDS011;989;53.016;8.346;2023-03-01T13:06:44;21.50;;;10.87;;
1977;SDS011;989;53.016;8.346;2023-03-01T13:11:57;32.03;;;10.25;;
1977;SDS011;989;53.016;8.346;2023-03-01T13:16:49;17.03;;;10.43;;
1977;SDS011;989;53.016;8.346;2023-03-01T13:19:17;17.08;;;10.90;;
1977;SDS011;989;53.016;8.346;2023-03-01T13:21:44;14.25;;;9.13;;
1977;SDS011;989;53.016;8.346;2023-03-01T13:29:54;13.93;;;9.57;;
1977;SDS011;989;53.016;8.346;2023-03-01T13:34:52;16.05;;;10.70;;
1977;SDS011;989;53.016;8.346;2023-03-01T13:37:19;15.68;;;10.57;;
1977;SDS011;989;53.016;8.346;2023-03-01T13:39:46;25.88;;;14.82;;
1977;SDS011;989;53.016;8.346;2023-03-01T13:42:32;22.03;;;12.00;;
1977;SDS011;989;53.016;8.346;2023-03-01T13:45:00;18.95;;;10.93;;
1977;SDS011;989;53.016;8.346;2023-03-01T13:47:26;18.95;;;12.00;;
1977;SDS011;989;53.016;8.346;2023-03-01T13:50:03;17.00;;;10.65;;
1977;SDS011;989;53.016;8.346;2023-03-01T13:53:04;18.88;;;10.48;;
1977;SDS011;989;53.016;8.346;2023-03-01T13:58:01;19.90;;;11.10;;
1977;SDS011;989;53.016;8.346;2023-03-01T14:00:29;20.80;;;10.37;;
1977;SDS011;989;53.016;8.346;2023-03-01T14:03:12;18.63;;;10.87;;
1977;SDS011;989;53.016;8.346;2023-03-01T14:05:40;19.77;;;10.37;;
1977;SDS011;989;53.016;8.346;2023-03-01T14:08:28;17.23;;;9.97;;
1977;SDS011;989;53.016;8.346;2023-03-01T14:13:46;20.13;;;9.67;;
1977;SDS011;989;53.016;8.346;2023-03-01T14:16:24;12.67;;;8.93;;
1977;SDS011;989;53.016;8.346;2023-03-01T14:19:04;12.40;;;8.83;;
1977;SDS011;989;53.016;8.346;2023-03-01T14:21:32;10.90;;;7.90;;
1977;SDS011;989;53.016;8.346;2023-03-01T14:23:58;12.20;;;8.13;;
1977;SDS011;989;53.016;8.346;2023-03-01T14:26:24;16.27;;;8.97;;
1977;SDS011;989;53.016;8.346;2023-03-01T14:28:50;11.37;;;7.93;;
1977;SDS011;989;53.016;8.346;2023-03-01T14:31:30;22.20;;;9.53;;
1977;SDS011;989;53.016;8.346;2023-03-01T14:33:57;15.03;;;9.93;;
1977;SDS011;989;53.016;8.346;2023-03-01T14:36:27;17.03;;;9.37;;
1977;SDS011;989;53.016;8.346;2023-03-01T14:38:53;13.83;;;9.50;;
1977;SDS011;989;53.016;8.346;2023-03-01T14:41:20;21.17;;;11.17;;
1977;SDS011;989;53.016;8.346;2023-03-01T14:43:47;15.30;;;10.03;;
1977;SDS011;989;53.016;8.346;2023-03-01T14:48:44;15.23;;;11.07;;
1977;SDS011;989;53.016;8.346;2023-03-01T14:51:10;17.50;;;10.17;;
1977;SDS011;989;53.016;8.346;2023-03-01T14:53:38;18.77;;;12.40;;
1977;SDS011;989;53.016;8.346;2023-03-01T14:56:04;14.37;;;8.40;;
1977;SDS011;989;53.016;8.346;2023-03-01T14:58:32;19.87;;;9.00;;
1977;SDS011;989;53.016;8.346;2023-03-01T15:01:00;13.30;;;8.70;;
1977;SDS011;989;53.016;8.346;2023-03-01T15:03:28;12.63;;;9.17;;
1977;SDS011;989;53.016;8.346;2023-03-01T15:05:55;16.50;;;9.40;;
1977;SDS011;989;53.016;8.346;2023-03-01T15:08:25;13.53;;;8.20;;
1977;SDS011;989;53.016;8.346;2023-03-01T15:10:59;17.80;;;8.73;;
1977;SDS011;989;53.016;8.346;2023-03-01T15:13:26;18.23;;;9.53;;
1977;SDS011;989;53.016;8.346;2023-03-01T15:16:00;15.80;;;9.83;;
1977;SDS011;989;53.016;8.346;2023-03-01T15:18:28;18.23;;;8.90;;
1977;SDS011;989;53.016;8.346;2023-03-01T15:20:54;17.00;;;10.73;;
1977;SDS011;989;53.016;8.346;2023-03-01T15:23:28;14.33;;;8.33;;
1977;SDS011;989;53.016;8.346;2023-03-01T15:25:55;16.90;;;10.10;;
1977;SDS011;989;53.016;8.346;2023-03-01T15:28:23;14.50;;;9.30;;
1977;SDS011;989;53.016;8.346;2023-03-01T15:33:40;14.50;;;9.17;;
1977;SDS011;989;53.016;8.346;2023-03-01T15:38:57;17.97;;;11.13;;
1977;SDS011;989;53.016;8.346;2023-03-01T15:41:46;16.73;;;10.40;;
1977;SDS011;989;53.016;8.346;2023-03-01T15:44:17;21.87;;;9.93;;
1977;SDS011;989;53.016;8.346;2023-03-01T15:46:47;17.63;;;9.17;;
1977;SDS011;989;53.016;8.346;2023-03-01T15:51:45;16.50;;;10.10;;
1977;SDS011;989;53.016;8.346;2023-03-01T15:54:17;18.20;;;10.33;;
1977;SDS011;989;53.016;8.346;2023-03-01T15:56:44;20.10;;;12.10;;
1977;SDS011;989;53.016;8.346;2023-03-01T15:59:10;21.00;;;11.57;;
1977;SDS011;989;53.016;8.346;2023-03-01T16:01:38;21.67;;;12.13;;
1977;SDS011;989;53.016;8.346;2023-03-01T16:04:04;26.20;;;12.63;;
1977;SDS011;989;53.016;8.346;2023-03-01T16:06:30;24.03;;;12.40;;
1977;SDS011;989;53.016;8.346;2023-03-01T16:08:56;24.00;;;12.73;;
1977;SDS011;989;53.016;8.346;2023-03-01T16:11:22;21.20;;;12.03;;
1977;SDS011;989;53.016;8.346;2023-03-01T16:13:48;21.85;;;12.10;;
1977;SDS011;989;53.016;8.346;2023-03-01T16:16:15;27.08;;;13.73;;
1977;SDS011;989;53.016;8.346;2023-03-01T16:18:42;20.27;;;11.60;;
1977;SDS011;989;53.016;8.346;2023-03-01T16:21:18;26.55;;;13.48;;
1977;SDS011;989;53.016;8.346;2023-03-01T16:23:45;32.63;;;14.10;;
1977;SDS011;989;53.016;8.346;2023-03-01T16:26:11;24.58;;;13.20;;
1977;SDS011;989;53.016;8.346;2023-03-01T16:28:38;28.23;;;12.68;;
1977;SDS011;989;53.016;8.346;2023-03-01T16:31:04;27.65;;;14.02;;
1977;SDS011;989;53.016;8.346;2023-03-01T16:33:30;29.58;;;13.23;;
1977;SDS011;989;53.016;8.346;2023-03-01T16:35:57;27.67;;;13.93;;
1977;SDS011;989;53.016;8.346;2023-03-01T16:38:24;36.25;;;13.98;;
1977;SDS011;989;53.016;8.346;2023-03-01T16:40:51;23.75;;;13.82;;
1977;SDS011;989;53.016;8.346;2023-03-01T16:43:17;29.95;;;13.70;;
1977;SDS011;989;53.016;8.346;2023-03-01T16:45:43;25.90;;;15.20;;
1977;SDS011;989;53.016;8.346;2023-03-01T16:48:10;33.72;;;15.88;;
1977;SDS011;989;53.016;8.346;2023-03-01T16:50:37;24.92;;;14.75;;
1977;SDS011;989;53.016;8.346;2023-03-01T16:53:03;33.15;;;14.35;;
1977;SDS011;989;53.016;8.346;2023-03-01T16:55:29;31.20;;;14.25;;
1977;SDS011;989;53.016;8.346;2023-03-01T16:57:55;35.47;;;15.90;;
1977;SDS011;989;53.016;8.346;2023-03-01T17:00:21;28.00;;;14.17;;
1977;SDS011;989;53.016;8.346;2023-03-01T17:02:47;33.97;;;16.70;;
1977;SDS011;989;53.016;8.346;2023-03-01T17:05:13;33.33;;;15.15;;
1977;SDS011;989;53.016;8.346;2023-03-01T17:07:40;32.90;;;16.55;;
1977;SDS011;989;53.016;8.346;2023-03-01T17:10:08;30.10;;;16.08;;
1977;SDS011;989;53.016;8.346;2023-03-01T17:12:35;24.50;;;14.60;;
1977;SDS011;989;53.016;8.346;2023-03-01T17:15:01;38.63;;;18.20;;
1977;SDS011;989;53.016;8.346;2023-03-01T17:17:27;38.90;;;17.50;;
1977;SDS011;989;53.016;8.346;2023-03-01T17:19:53;37.65;;;18.17;;
1977;SDS011;989;53.016;8.346;2023-03-01T17:22:19;38.20;;;18.17;;
1977;SDS011;989;53.016;8.346;2023-03-01T17:24:45;35.92;;;15.63;;
1977;SDS011;989;53.016;8.346;2023-03-01T17:27:12;29.13;;;13.63;;